Time;durP1;ratioP1;P1;durP2;ratioP2;P2;SDS_P1;SDS_P2;PMS_P1;PMS_P2;Temp;Humidity;BMP_temperature;BMP_pressure;BME280_temperature;BME280_humidity;BME280_pressure;Samples;Min_cycle;Max_cycle;Signal;HPM_P1;HPM_P2
2024/01/23 00:01:46;;;;;;;;;2.33;1.00;;;;;-144.24;100.00;114741.63;5021049;28;71839;-73
2024/01/23 00:04:12;;;;;;;;;3.33;1.00;;;;;-144.24;100.00;114692.75;5036575;28;45402;-72
2024/01/23 00:06:37;;;;;;;;;4.33;1.33;;;;;-144.24;100.00;114647.91;5032502;28;45660;-72
2024/01/23 00:09:03;;;;;;;;;1.33;1.33;;;;;-144.24;100.00;114603.09;4961561;28;1946935;-72
2024/01/23 00:11:28;;;;;;;;;3.00;1.00;;;;;-144.24;100.00;114531.78;5037352;28;45372;-72
2024/01/23 00:13:53;;;;;;;;;2.00;1.00;;;;;-144.24;100.00;114460.47;5029923;28;45228;-71
2024/01/23 00:16:19;;;;;;;;;3.00;1.00;;;;;-144.24;100.00;114399.34;5037615;28;45385;-76
2024/01/23 00:18:44;;;;;;;;;2.67;1.00;;;;;-144.24;100.00;114336.19;5029347;28;46437;-72
2024/01/23 00:21:10;;;;;;;;;1.00;1.00;;;;;-144.24;100.00;114226.19;5027096;28;45531;-74
2024/01/23 00:23:35;;;;;;;;;1.00;1.00;;;;;-144.24;100.00;114195.63;5036807;28;64720;-73
2024/01/23 00:26:00;;;;;;;;;3.33;2.00;;;;;-144.24;100.00;114079.50;5034042;28;45549;-73
2024/01/23 00:28:26;;;;;;;;;4.33;1.67;;;;;-144.24;100.00;113959.31;5024182;28;68618;-72
2024/01/23 00:30:51;;;;;;;;;3.33;0.33;;;;;-144.24;100.00;113816.72;5035173;28;45931;-72
2024/01/23 00:33:17;;;;;;;;;1.33;1.00;;;;;-144.24;100.00;113606.91;5035039;28;61935;-73
2024/01/23 00:35:42;;;;;;;;;0.67;0.67;;;;;-144.24;100.00;113399.13;5035939;28;46281;-72
2024/01/23 00:38:07;;;;;;;;;7.33;2.00;;;;;-144.24;100.00;113081.41;5034524;28;45741;-73
2024/01/23 00:40:33;;;;;;;;;4.00;2.00;;;;;-144.24;100.00;112965.31;5036722;28;45311;-73
2024/01/23 00:42:58;;;;;;;;;1.00;1.00;;;;;-144.24;100.00;112692.41;5034066;28;45429;-72
2024/01/23 00:45:24;;;;;;;;;3.00;1.00;;;;;-144.24;100.00;112541.72;5031653;28;53250;-72
2024/01/23 00:47:49;;;;;;;;;2.00;1.00;;;;;-144.24;100.00;112395.09;5036327;28;71552;-71
2024/01/23 00:50:14;;;;;;;;;2.33;1.00;;;;;-144.24;100.00;112311.59;5031183;28;45367;-72
2024/01/23 00:52:40;;;;;;;;;3.00;1.00;;;;;-144.24;100.00;112154.81;5035457;28;68555;-72
2024/01/23 00:55:05;;;;;;;;;8.33;1.00;;;;;-144.24;100.00;112244.41;5035815;28;63125;-71
2024/01/23 00:57:32;;;;;;;;;4.67;1.00;;;;;-144.24;100.00;112352.31;5036546;28;46982;-74
2024/01/23 00:59:57;;;;;;;;;3.67;1.00;;;;;-144.24;100.00;112476.53;5036474;28;45444;-71
2024/01/23 01:02:22;;;;;;;;;6.67;1.00;;;;;-144.24;100.00;112651.69;5036636;28;45514;-72
2024/01/23 01:04:48;;;;;;;;;4.33;0.00;;;;;-144.24;100.00;112702.59;5035879;28;56112;-73
2024/01/23 01:07:14;;;;;;;;;7.00;2.67;;;;;-144.24;100.00;112818.66;5036065;28;55747;-72
2024/01/23 01:09:39;;;;;;;;;0.67;0.33;;;;;-144.24;100.00;112875.69;5030655;28;45360;-72
2024/01/23 01:12:05;;;;;;;;;2.67;1.00;;;;;-144.24;100.00;112759.59;5036099;28;45454;-77
2024/01/23 01:14:30;;;;;;;;;4.67;0.00;;;;;-144.24;100.00;112871.63;5035476;28;45292;-72
2024/01/23 01:16:56;;;;;;;;;4.67;1.67;;;;;-144.24;100.00;112830.88;5030764;28;46311;-74
2024/01/23 01:19:21;;;;;;;;;4.00;1.00;;;;;-144.24;100.00;112661.84;5035267;28;68369;-75
2024/01/23 01:21:46;;;;;;;;;0.00;0.00;;;;;-144.24;100.00;112606.88;5025834;28;67121;-71
2024/01/23 01:24:12;;;;;;;;;5.00;1.00;;;;;-144.24;100.00;112509.13;5032029;28;56010;-75
2024/01/23 01:26:39;;;;;;;;;2.00;1.00;;;;;-144.24;100.00;112356.41;5034603;28;59123;-73
2024/01/23 01:29:04;;;;;;;;;1.33;1.00;;;;;-144.24;100.00;112224.03;5033934;28;45470;-72
2024/01/23 01:31:29;;;;;;;;;7.67;2.00;;;;;-144.24;100.00;112097.78;5035155;28;68455;-76
2024/01/23 01:33:55;;;;;;;;;2.67;1.00;;;;;-144.24;100.00;112014.31;5034666;28;61451;-72
2024/01/23 01:36:20;;;;;;;;;2.33;0.33;;;;;-144.24;100.00;111814.75;5033031;28;73197;-71
2024/01/23 01:38:46;;;;;;;;;3.00;2.00;;;;;-144.24;100.00;111647.81;5036488;28;45404;-73
2024/01/23 01:41:11;;;;;;;;;3.67;0.33;;;;;-144.24;100.00;111450.31;5033937;28;45432;-72
2024/01/23 01:43:37;;;;;;;;;7.00;2.00;;;;;-144.24;100.00;111222.31;5027453;28;54058;-73
2024/01/23 01:46:23;;;;;;;;;1.33;1.00;;;;;-144.24;100.00;111147.00;5037740;28;45640;-75
2024/01/23 01:48:49;;;;;;;;;7.00;1.67;;;;;-144.24;100.00;110959.72;5036818;28;45444;-70
2024/01/23 01:51:20;;;;;;;;;4.00;1.33;;;;;-144.24;100.00;110678.78;5036468;28;45630;-72
2024/01/23 01:53:46;;;;;;;;;1.33;1.33;;;;;-144.24;100.00;110485.44;5032501;28;45355;-76
2024/01/23 01:56:11;;;;;;;;;4.00;1.00;;;;;-144.24;100.00;110285.97;5031316;28;47006;-72
2024/01/23 01:58:39;;;;;;;;;4.67;2.00;;;;;-144.24;100.00;110013.25;5032448;28;73883;-72
2024/01/23 02:01:04;;;;;;;;;3.00;1.00;;;;;-144.24;100.00;109793.44;5038841;28;45430;-72
2024/01/23 02:03:30;;;;;;;;;8.00;1.00;;;;;-144.24;100.00;109712.06;5037178;28;51339;-75
2024/01/23 02:05:56;;;;;;;;;3.00;1.00;;;;;-144.24;100.00;109486.16;5036082;28;53839;-72
2024/01/23 02:08:22;;;;;;;;;4.67;1.33;;;;;-144.24;100.00;109319.31;5039062;28;45482;-75
2024/01/23 02:10:48;;;;;;;;;4.67;1.00;;;;;-144.24;100.00;109099.56;5027559;28;47095;-71
2024/01/23 02:13:13;;;;;;;;;6.33;1.00;;;;;-144.24;100.00;108930.69;5025426;28;66418;-71
2024/01/23 02:15:38;;;;;;;;;7.33;1.67;;;;;-144.24;100.00;108816.75;5025239;28;51048;-73
2024/01/23 02:18:04;;;;;;;;;5.67;1.67;;;;;-144.24;100.00;108554.28;5023196;28;51227;-74
2024/01/23 02:20:29;;;;;;;;;2.00;2.00;;;;;-144.24;100.00;108430.19;5021774;28;45298;-73
2024/01/23 02:22:54;;;;;;;;;3.00;1.00;;;;;-144.24;100.00;108420.03;5006501;28;48836;-76
2024/01/23 02:25:20;;;;;;;;;8.67;1.67;;;;;-144.24;100.00;108057.91;5012209;28;72229;-72
2024/01/23 02:27:45;;;;;;;;;5.33;0.00;;;;;-144.24;100.00;107978.59;5022554;28;47690;-72
2024/01/23 02:30:11;;;;;;;;;7.33;1.00;;;;;-144.24;100.00;107903.31;5022977;28;45313;-72
2024/01/23 02:32:36;;;;;;;;;2.00;2.00;;;;;-144.24;100.00;107695.84;5020220;28;45374;-72
2024/01/23 02:35:02;;;;;;;;;2.00;1.33;;;;;-144.24;100.00;107539.22;5022718;28;45635;-72
2024/01/23 02:37:27;;;;;;;;;10.33;1.00;;;;;-144.24;100.00;107325.69;5020091;28;45441;-73
2024/01/23 02:39:53;;;;;;;;;3.00;1.67;;;;;-144.24;100.00;107323.66;5034879;28;45458;-75
2024/01/23 02:42:18;;;;;;;;;4.00;1.00;;;;;-144.24;100.00;107221.94;5012240;28;45508;-72
2024/01/23 02:44:45;;;;;;;;;3.00;1.00;;;;;-144.24;100.00;107085.69;5030133;28;45309;-75
2024/01/23 02:47:11;;;;;;;;;3.00;1.33;;;;;-144.24;100.00;106770.47;5006660;28;45219;-72
2024/01/23 02:49:37;;;;;;;;;5.00;2.00;;;;;-144.24;100.00;106758.28;5028286;28;45412;-75
2024/01/23 02:52:03;;;;;;;;;1.00;1.00;;;;;-144.24;100.00;106685.06;5011388;28;45520;-72
2024/01/23 02:54:30;;;;;;;;;7.00;1.00;;;;;-144.24;100.00;106453.25;5025200;28;47358;-74
2024/01/23 02:56:55;;;;;;;;;9.00;2.00;;;;;-144.24;100.00;106434.97;5022508;28;45464;-75
2024/01/23 02:59:21;;;;;;;;;4.00;1.00;;;;;-144.24;100.00;106449.19;5011768;28;45821;-72
2024/01/23 03:01:46;;;;;;;;;1.33;0.00;;;;;-144.24;100.00;106270.25;5019478;28;45579;-75
2024/01/23 03:04:11;;;;;;;;;2.33;1.00;;;;;-144.24;100.00;106123.88;5023002;28;62635;-72
2024/01/23 03:06:37;;;;;;;;;4.33;2.00;;;;;-144.24;100.00;105936.81;5030443;28;72776;-73
2024/01/23 03:09:02;;;;;;;;;4.00;2.67;;;;;-144.24;100.00;105782.28;5032454;28;45443;-72
2024/01/23 03:11:28;;;;;;;;;7.67;0.33;;;;;-144.24;100.00;105818.88;5028558;28;45506;-73
2024/01/23 03:13:53;;;;;;;;;8.33;1.67;;;;;-144.24;100.00;105686.75;5026758;28;45797;-74
2024/01/23 03:16:19;;;;;;;;;2.33;1.00;;;;;-144.24;100.00;105513.94;5027294;28;45599;-72
2024/01/23 03:18:44;;;;;;;;;3.33;1.33;;;;;-144.24;100.00;105432.63;5026589;28;45237;-72
2024/01/23 03:21:09;;;;;;;;;1.00;1.00;;;;;-144.24;100.00;105479.38;5023764;28;45662;-72
2024/01/23 03:23:34;;;;;;;;;2.00;1.00;;;;;-144.24;100.00;105424.50;5024489;28;75739;-75
2024/01/23 03:26:00;;;;;;;;;7.00;1.00;;;;;-144.24;100.00;105257.81;5020164;28;66361;-72
2024/01/23 03:28:25;;;;;;;;;1.67;1.00;;;;;-144.24;100.00;105188.69;5026816;28;67274;-73
2024/01/23 03:30:50;;;;;;;;;3.00;1.67;;;;;-144.24;100.00;105206.97;5017235;28;62893;-71
2024/01/23 03:33:16;;;;;;;;;2.00;1.00;;;;;-144.24;100.00;104981.34;5020735;28;61208;-70
2024/01/23 03:35:41;;;;;;;;;5.33;0.67;;;;;-144.24;100.00;105024.03;5020824;28;70600;-72
2024/01/23 03:38:06;;;;;;;;;10.00;2.67;;;;;-144.24;100.00;104946.81;5021761;28;69149;-72
2024/01/23 03:40:32;;;;;;;;;1.00;1.00;;;;;-144.24;100.00;104751.66;5018292;28;62334;-74
2024/01/23 03:42:57;;;;;;;;;9.00;2.33;;;;;-144.24;100.00;104656.16;5020037;28;66243;-72
2024/01/23 03:45:22;;;;;;;;;3.33;1.00;;;;;-144.24;100.00;104564.69;5030769;28;68258;-72
2024/01/23 03:47:48;;;;;;;;;6.00;1.67;;;;;-144.24;100.00;104422.41;5028689;28;64259;-72
2024/01/23 03:50:13;;;;;;;;;1.00;1.00;;;;;-144.24;100.00;104251.69;5032585;28;63541;-72
2024/01/23 03:52:38;;;;;;;;;1.67;1.67;;;;;-144.24;100.00;104093.19;5029086;28;66499;-71
2024/01/23 03:55:04;;;;;;;;;6.00;1.00;;;;;-144.24;100.00;104166.34;5029247;28;53999;-72
2024/01/23 03:57:29;;;;;;;;;3.00;1.00;;;;;-144.24;100.00;103916.38;5025868;28;45435;-73
2024/01/23 03:59:54;;;;;;;;;6.00;2.00;;;;;-144.24;100.00;103879.81;5020704;28;62484;-72
2024/01/23 04:02:24;;;;;;;;;6.00;1.00;;;;;-144.24;100.00;103703.00;5017322;28;74055;-70
2024/01/23 04:04:50;;;;;;;;;2.33;2.00;;;;;-144.24;100.00;103766.00;5018096;28;45364;-77
2024/01/23 04:07:15;;;;;;;;;7.00;1.00;;;;;-144.24;100.00;103593.28;5022207;28;65134;-72
2024/01/23 04:09:40;;;;;;;;;2.33;1.00;;;;;-144.24;100.00;103355.56;5031429;28;65081;-75
2024/01/23 04:12:06;;;;;;;;;1.67;1.00;;;;;-144.24;100.00;103253.97;5036694;28;71250;-74
2024/01/23 04:14:31;;;;;;;;;5.67;3.00;;;;;-144.24;100.00;103123.94;5034782;28;45189;-72
2024/01/23 04:16:56;;;;;;;;;4.00;1.00;;;;;-144.24;100.00;102928.91;5034119;28;63392;-73
2024/01/23 04:19:22;;;;;;;;;2.67;1.00;;;;;-144.24;100.00;102599.78;5037880;28;45458;-73
2024/01/23 04:21:47;;;;;;;;;4.67;2.00;;;;;-144.24;100.00;102632.28;5032943;28;45698;-77
2024/01/23 04:24:12;;;;;;;;;6.00;1.33;;;;;-144.24;100.00;102605.88;5034686;28;71412;-71
2024/01/23 04:26:44;;;;;;;;;4.00;1.00;;;;;-144.24;100.00;102351.94;5035291;28;65909;-74
2024/01/23 04:29:10;;;;;;;;;3.67;1.67;;;;;-144.24;100.00;102063.50;5029538;28;45631;-72
2024/01/23 04:31:35;;;;;;;;;3.00;1.00;;;;;-144.24;100.00;102232.09;5036828;28;69712;-74
2024/01/23 04:34:00;;;;;;;;;6.33;2.00;;;;;-144.24;100.00;102069.59;5029361;28;72767;-71
2024/01/23 04:36:26;;;;;;;;;12.33;1.00;;;;;-144.24;100.00;102317.41;5036270;28;70527;-74
2024/01/23 04:38:51;;;;;;;;;6.00;2.00;;;;;-144.24;100.00;102386.50;5030297;28;45493;-73
2024/01/23 04:41:17;;;;;;;;;5.00;2.00;;;;;-144.24;100.00;102486.03;5036278;28;68983;-72
2024/01/23 04:43:42;;;;;;;;;0.00;0.00;;;;;-144.24;100.00;102469.78;5030215;28;45288;-72
2024/01/23 04:46:08;;;;;;;;;9.67;1.00;;;;;-144.24;100.00;102416.97;5034659;28;45501;-72
2024/01/23 04:48:33;;;;;;;;;7.00;1.00;;;;;-144.24;100.00;102500.25;5037911;28;45407;-72
2024/01/23 04:50:59;;;;;;;;;3.00;1.67;;;;;-144.24;100.00;102311.31;5033246;28;47392;-71
2024/01/23 04:53:29;;;;;;;;;6.33;1.00;;;;;-144.24;100.00;102414.94;5036698;28;52678;-73
2024/01/23 04:55:54;;;;;;;;;7.67;2.00;;;;;-144.24;100.00;102351.94;5034887;28;45679;-70
2024/01/23 04:58:20;;;;;;;;;7.33;0.00;;;;;-144.24;100.00;102445.41;5034536;28;45432;-72
2024/01/23 05:00:45;;;;;;;;;3.00;1.33;;;;;-144.24;100.00;102488.06;5028855;28;73575;-71
2024/01/23 05:03:10;;;;;;;;;4.00;1.33;;;;;-144.24;100.00;102567.28;5028907;28;69970;-75
2024/01/23 05:05:35;;;;;;;;;6.00;1.00;;;;;-144.24;100.00;102707.44;5036341;28;49210;-72
2024/01/23 05:08:01;;;;;;;;;6.00;2.00;;;;;-144.24;100.00;102585.56;5033853;28;65657;-73
2024/01/23 05:10:26;;;;;;;;;4.00;1.00;;;;;-144.24;100.00;102691.19;5024420;28;72706;-72
2024/01/23 05:12:51;;;;;;;;;8.00;2.00;;;;;-144.24;100.00;102626.19;5036238;28;63222;-71
2024/01/23 05:15:17;;;;;;;;;3.00;1.00;;;;;-144.24;100.00;102496.19;5026786;28;45463;-72
2024/01/23 05:17:42;;;;;;;;;6.67;2.00;;;;;-144.24;100.00;102299.13;5035185;28;64344;-74
2024/01/23 05:20:08;;;;;;;;;1.00;1.00;;;;;-144.24;100.00;102209.75;5025126;28;75730;-71
2024/01/23 05:22:34;;;;;;;;;3.33;1.00;;;;;-144.24;100.00;102049.28;5031985;28;45329;-72
2024/01/23 05:24:59;;;;;;;;;4.33;2.00;;;;;-144.24;100.00;102335.69;5035143;28;45316;-70
2024/01/23 05:27:26;;;;;;;;;1.00;1.00;;;;;-144.24;100.00;102189.44;5035984;28;65024;-70
2024/01/23 05:29:51;;;;;;;;;7.33;1.00;;;;;-144.24;100.00;102035.06;5027324;28;47257;-74
2024/01/23 05:32:17;;;;;;;;;4.00;1.00;;;;;-144.24;100.00;102179.28;5025447;28;45688;-74
2024/01/23 05:34:43;;;;;;;;;7.00;2.00;;;;;-144.24;100.00;102181.31;5030452;28;47382;-72
2024/01/23 05:37:08;;;;;;;;;5.00;1.33;;;;;-144.24;100.00;102132.56;5035141;28;45479;-72
2024/01/23 05:39:37;;;;;;;;;2.67;1.67;;;;;-144.24;100.00;102073.66;5031955;28;68626;-72
2024/01/23 05:42:03;;;;;;;;;4.00;2.00;;;;;-144.24;100.00;101831.97;5032303;28;45573;-75
2024/01/23 05:44:28;;;;;;;;;11.00;2.00;;;;;-144.24;100.00;101813.69;5034114;28;45492;-71
2024/01/23 05:46:54;;;;;;;;;4.67;1.00;;;;;-144.24;100.00;101547.63;5038172;28;64052;-73
2024/01/23 05:49:19;;;;;;;;;9.00;1.00;;;;;-144.24;100.00;101502.94;5031195;28;47478;-71
2024/01/23 05:51:44;;;;;;;;;4.00;1.00;;;;;-144.24;100.00;101184.09;5028661;28;69302;-73
2024/01/23 05:54:10;;;;;;;;;1.33;1.33;;;;;-144.24;100.00;101125.22;5030098;28;67419;-78
2024/01/23 05:56:35;;;;;;;;;6.67;2.67;;;;;-144.24;100.00;101043.97;5035374;28;45497;-74
2024/01/23 05:59:00;;;;;;;;;6.33;1.00;;;;;-144.24;100.00;100942.44;5025525;28;74061;-71
2024/01/23 06:01:26;;;;;;;;;3.67;3.00;;;;;-144.24;100.00;100863.25;5031343;28;45558;-72
2024/01/23 06:03:51;;;;;;;;;3.33;1.67;;;;;-144.24;100.00;100646.00;5032449;28;45449;-72
2024/01/23 06:06:19;;;;;;;;;2.33;2.00;;;;;-144.24;100.00;100469.34;5037954;28;61768;-73
2024/01/23 06:08:44;;;;;;;;;8.00;2.00;;;;;-144.24;100.00;100611.47;5040456;28;45814;-74
2024/01/23 06:11:09;;;;;;;;;7.00;1.00;;;;;-144.24;100.00;100459.19;5034418;28;45332;-72
2024/01/23 06:13:35;;;;;;;;;3.33;2.00;;;;;-144.24;100.00;100337.38;5035126;28;65483;-72
2024/01/23 06:16:00;;;;;;;;;7.33;1.67;;;;;-144.24;100.00;100229.75;5029861;28;64522;-72
2024/01/23 06:18:25;;;;;;;;;8.33;1.33;;;;;-144.24;100.00;100077.50;5034047;28;68262;-73
2024/01/23 06:20:51;;;;;;;;;4.00;1.67;;;;;-144.24;100.00;100055.16;5027630;28;67967;-75
2024/01/23 06:23:16;;;;;;;;;1.00;1.00;;;;;-144.24;100.00;100038.94;5025556;28;46940;-71
2024/01/23 06:25:41;;;;;;;;;3.00;0.00;;;;;-144.24;100.00;99961.78;5029000;28;45629;-73
2024/01/23 06:28:06;;;;;;;;;9.33;3.00;;;;;-144.24;100.00;100032.84;5024841;28;72503;-72
2024/01/23 06:30:32;;;;;;;;;4.00;2.00;;;;;-144.24;100.00;100061.25;5022898;28;71551;-74
2024/01/23 06:32:57;;;;;;;;;3.67;1.00;;;;;-144.24;100.00;100201.34;5025219;28;45502;-71
2024/01/23 06:35:23;;;;;;;;;6.33;2.00;;;;;-144.24;100.00;100262.25;5028301;28;45364;-73
2024/01/23 06:37:48;;;;;;;;;4.33;2.00;;;;;-144.24;100.00;100473.41;5037115;28;56963;-72
2024/01/23 06:40:13;;;;;;;;;2.00;2.00;;;;;-144.24;100.00;100507.91;5033186;28;46038;-72
2024/01/23 06:42:39;;;;;;;;;1.00;1.00;;;;;-144.24;100.00;100625.69;5035117;28;68892;-71
2024/01/23 06:45:04;;;;;;;;;8.00;3.00;;;;;-144.24;100.00;100686.59;5038232;28;59611;-76
2024/01/23 06:47:30;;;;;;;;;4.00;3.00;;;;;-144.24;100.00;100812.50;5041568;28;45556;-72
2024/01/23 06:49:55;;;;;;;;;1.00;1.00;;;;;-144.24;100.00;100784.06;5035713;28;45423;-73
2024/01/23 06:52:20;;;;;;;;;2.00;1.00;;;;;-144.24;100.00;100881.53;5041182;28;48023;-72
2024/01/23 06:54:46;;;;;;;;;3.00;2.33;;;;;-144.24;100.00;101029.78;5031305;28;52906;-74
2024/01/23 06:57:11;;;;;;;;;9.00;2.00;;;;;-144.24;100.00;101135.38;5032671;28;46378;-75
2024/01/23 06:59:36;;;;;;;;;2.00;2.00;;;;;-144.24;100.00;101058.19;5035243;28;59641;-75
2024/01/23 07:02:04;;;;;;;;;3.00;2.00;;;;;-144.24;100.00;101198.31;5034261;28;64971;-74
2024/01/23 07:04:29;;;;;;;;;5.33;1.67;;;;;-144.24;100.00;101074.44;5030769;28;45423;-74
2024/01/23 07:06:55;;;;;;;;;4.33;3.00;;;;;-144.24;100.00;101151.63;5036883;28;46320;-74
2024/01/23 07:09:21;;;;;;;;;5.33;2.00;;;;;-144.24;100.00;101058.19;5036209;28;45407;-73
2024/01/23 07:11:47;;;;;;;;;2.33;1.00;;;;;-144.24;100.00;101210.50;5034886;28;45490;-74
2024/01/23 07:14:12;;;;;;;;;8.00;3.33;;;;;-144.24;100.00;101088.66;5036185;28;45522;-74
2024/01/23 07:16:38;;;;;;;;;4.00;2.33;;;;;-144.24;100.00;101303.91;5035714;28;46520;-71
2024/01/23 07:19:03;;;;;;;;;7.33;2.00;;;;;-144.24;100.00;101265.34;5038695;28;45608;-68
2024/01/23 07:21:28;;;;;;;;;5.67;3.00;;;;;-144.24;100.00;101324.22;5031759;28;68746;-71
2024/01/23 07:23:54;;;;;;;;;8.33;1.67;;;;;-144.24;100.00;101318.13;5044688;28;45537;-74
2024/01/23 07:26:19;;;;;;;;;8.00;3.00;;;;;-144.24;100.00;101277.53;5033156;28;46362;-69
2024/01/23 07:28:45;;;;;;;;;10.00;1.67;;;;;-144.24;100.00;101448.09;5030347;28;45986;-69
2024/01/23 07:31:11;;;;;;;;;6.33;2.67;;;;;-144.24;100.00;101482.63;5031438;28;69789;-69
2024/01/23 07:33:37;;;;;;;;;3.00;2.00;;;;;-144.24;100.00;101476.53;5038419;28;45296;-69
2024/01/23 07:36:02;;;;;;;;;5.67;3.00;;;;;-144.24;100.00;101121.16;5031684;28;47399;-70
2024/01/23 07:38:28;;;;;;;;;6.33;2.00;;;;;-144.24;100.00;100828.75;5030861;28;45495;-70
2024/01/23 07:40:53;;;;;;;;;3.00;3.00;;;;;-144.24;100.00;100410.47;5046204;28;62860;-70
2024/01/23 07:43:23;;;;;;;;;5.33;1.00;;;;;-144.24;100.00;100057.19;5036624;28;45438;-70
2024/01/23 07:45:49;;;;;;;;;7.67;3.00;;;;;-144.24;100.00;99622.75;5034101;28;46921;-70
2024/01/23 07:48:14;;;;;;;;;3.33;1.33;;;;;-144.24;100.00;99056.44;5025351;28;68843;-69
2024/01/23 07:50:39;;;;;;;;;7.00;3.00;;;;;-144.24;100.00;98471.94;5033159;28;65810;-70
2024/01/23 07:53:05;;;;;;;;;11.33;2.33;;;;;-144.24;100.00;97834.75;5027812;28;45412;-69
2024/01/23 07:55:30;;;;;;;;;8.00;4.50;;;;;-144.24;100.00;97301.13;5031208;28;46945;-69
2024/01/23 07:57:55;;;;;;;;;6.67;2.00;;;;;-144.24;100.00;96627.63;5035576;28;72798;-70
2024/01/23 08:00:21;;;;;;;;;8.67;1.67;;;;;-144.24;100.00;96031.31;5026479;28;67766;-69
2024/01/23 08:02:46;;;;;;;;;9.50;5.50;;;;;-144.24;100.00;95355.97;5028437;28;45489;-68
2024/01/23 08:05:11;;;;;;;;;4.67;2.00;;;;;-144.24;100.00;94810.53;5036959;28;69649;-72
2024/01/23 08:07:38;;;;;;;;;7.33;2.00;;;;;-144.24;100.00;94068.50;5024704;28;45467;-72
2024/01/23 08:10:04;;;;;;;;;6.33;2.00;;;;;-144.24;100.00;93434.06;5026788;28;45510;-72
2024/01/23 08:12:29;;;;;;;;;5.00;2.00;;;;;-144.24;100.00;92852.38;5031767;28;45675;-72
2024/01/23 08:14:54;;;;;;;;;7.00;2.00;;;;;-144.24;100.00;92337.66;5034774;28;72481;-72
2024/01/23 08:17:20;;;;;;;;;7.00;3.00;;;;;-144.24;100.00;91855.44;5034187;28;71474;-70
2024/01/23 08:19:45;;;;;;;;;4.00;2.33;;;;;-144.24;100.00;91596.09;5032620;28;46336;-69
2024/01/23 08:22:11;;;;;;;;;3.33;2.33;;;;;-144.24;100.00;91427.97;5036125;28;45696;-70
2024/01/23 08:24:36;;;;;;;;;4.33;2.67;;;;;-144.24;100.00;91243.59;5031659;28;73003;-70
2024/01/23 08:27:03;;;;;;;;;13.00;4.00;;;;;-144.24;100.00;91049.13;5027465;28;57150;-71
2024/01/23 08:29:28;;;;;;;;;12.67;2.33;;;;;-144.24;100.00;90923.56;5030962;28;45554;-69
2024/01/23 08:31:53;;;;;;;;;7.33;2.67;;;;;-144.24;100.00;90812.16;5023704;28;61226;-70
2024/01/23 08:34:19;;;;;;;;;9.67;3.33;;;;;-144.24;100.00;90631.88;5030923;28;46514;-70
2024/01/23 08:36:44;;;;;;;;;7.00;2.00;;;;;-144.24;100.00;90520.47;5028627;28;47376;-70
2024/01/23 08:39:10;;;;;;;;;3.67;3.00;;;;;-144.24;100.00;90455.66;5035488;28;45319;-71
2024/01/23 08:41:36;;;;;;;;;10.67;4.00;;;;;-144.24;100.00;90433.38;5030159;28;45585;-73
2024/01/23 08:44:02;;;;;;;;;8.67;3.67;;;;;-144.24;100.00;90356.41;5035299;28;46539;-70
2024/01/23 08:46:28;;;;;;;;;5.00;3.67;;;;;-144.24;100.00;90425.28;5032268;28;45459;-70
2024/01/23 08:48:53;;;;;;;;;9.33;4.00;;;;;-144.24;100.00;90546.81;5033774;28;45484;-70
2024/01/23 08:51:21;;;;;;;;;6.33;4.00;;;;;-144.24;100.00;90603.53;5035144;28;56860;-72
2024/01/23 08:53:47;;;;;;;;;9.00;3.00;;;;;-144.24;100.00;90674.41;5028135;28;46486;-73
2024/01/23 08:56:12;;;;;;;;;6.33;3.00;;;;;-144.24;100.00;90955.97;5023756;28;45351;-73
2024/01/23 08:58:37;;;;;;;;;6.00;2.67;;;;;-144.24;100.00;91041.03;5030544;28;45418;-70
2024/01/23 09:01:03;;;;;;;;;2.67;2.33;;;;;-144.24;100.00;91097.75;5029883;28;64211;-71
2024/01/23 09:03:28;;;;;;;;;6.33;4.00;;;;;-144.24;100.00;91622.44;5042576;28;47120;-74
2024/01/23 09:05:53;;;;;;;;;10.33;2.67;;;;;-144.24;100.00;91764.25;5030548;28;70178;-70
2024/01/23 09:08:19;;;;;;;;;8.00;4.00;;;;;-144.24;100.00;92080.34;5032479;28;64849;-71
2024/01/23 09:10:44;;;;;;;;;4.00;2.00;;;;;-144.24;100.00;92100.59;5034625;28;66614;-70
2024/01/23 09:13:09;;;;;;;;;13.00;4.00;;;;;-144.24;100.00;92047.91;5029771;28;65944;-70
2024/01/23 09:15:35;;;;;;;;;10.33;3.67;;;;;-144.24;100.00;92185.69;5030841;28;63994;-70
2024/01/23 09:18:01;;;;;;;;;4.33;2.67;;;;;-144.24;100.00;92402.50;5028763;28;45329;-70
2024/01/23 09:20:26;;;;;;;;;5.00;3.00;;;;;-144.24;100.00;92475.47;5033452;28;45466;-71
2024/01/23 09:22:52;;;;;;;;;11.00;4.00;;;;;-144.24;100.00;92751.06;5033523;28;45356;-70
2024/01/23 09:25:20;;;;;;;;;11.67;3.33;;;;;-144.24;100.00;93089.50;5032492;28;45376;-70
2024/01/23 09:27:46;;;;;;;;;8.67;4.67;;;;;-144.24;100.00;93059.09;5031678;28;45493;-75
2024/01/23 09:30:12;;;;;;;;;5.00;4.00;;;;;-144.24;100.00;93361.09;5030207;28;46050;-71
2024/01/23 09:32:38;;;;;;;;;8.00;2.00;;;;;-144.24;100.00;93683.38;5029844;28;46638;-75
2024/01/23 09:35:03;;;;;;;;;6.33;3.67;;;;;-144.24;100.00;94070.53;5030076;28;45485;-73
2024/01/23 09:37:29;;;;;;;;;4.67;2.00;;;;;-144.24;100.00;94386.78;5027829;28;45337;-70
2024/01/23 09:39:54;;;;;;;;;7.33;2.33;;;;;-144.24;100.00;94788.22;5023048;28;61861;-70
2024/01/23 09:42:21;;;;;;;;;4.00;2.33;;;;;-144.24;100.00;94830.81;5032438;28;72172;-70
2024/01/23 09:44:47;;;;;;;;;7.67;2.00;;;;;-144.24;100.00;94966.66;5031792;28;45331;-73
2024/01/23 09:47:13;;;;;;;;;12.00;3.00;;;;;-144.24;100.00;95256.63;5032796;28;45320;-74
2024/01/23 09:49:38;;;;;;;;;8.00;3.00;;;;;-144.24;100.00;95335.69;5031349;28;45423;-70
2024/01/23 09:52:05;;;;;;;;;9.33;4.00;;;;;-144.24;100.00;95435.06;5032118;28;47062;-72
2024/01/23 09:54:31;;;;;;;;;4.00;4.00;;;;;-144.24;100.00;95637.84;5029899;28;45454;-72
2024/01/23 09:56:58;;;;;;;;;10.33;4.00;;;;;-144.24;100.00;95911.66;5031016;28;45465;-74
2024/01/23 09:59:23;;;;;;;;;8.33;2.67;;;;;-144.24;100.00;96006.97;5030379;28;45573;-71
2024/01/23 10:01:49;;;;;;;;;7.67;3.00;;;;;-144.24;100.00;96043.47;5028587;28;62824;-73
2024/01/23 10:04:17;;;;;;;;;6.33;2.67;;;;;-144.24;100.00;96465.34;5034460;28;47119;-69
2024/01/23 10:06:42;;;;;;;;;9.00;2.00;;;;;-144.24;100.00;96660.09;5035864;28;46362;-73
2024/01/23 10:09:07;;;;;;;;;6.33;4.00;;;;;-144.24;100.00;96940.03;5158461;22;58334;-70
2024/01/23 10:11:34;;;;;;;;;7.33;5.00;;;;;-144.24;100.00;97041.47;5070293;27;70711;-70
2024/01/23 10:14:01;;;;;;;;;11.67;3.00;;;;;-144.24;100.00;97165.22;5065906;28;45565;-69
2024/01/23 10:16:26;;;;;;;;;5.00;3.33;;;;;-144.24;100.00;97587.22;5068364;28;45535;-70
2024/01/23 10:18:52;;;;;;;;;5.67;4.00;;;;;-144.24;100.00;97581.13;5064410;28;45493;-68
2024/01/23 10:21:21;;;;;;;;;9.00;2.67;;;;;-144.24;100.00;97897.66;5070981;28;46545;-69
2024/01/23 10:23:50;;;;;;;;;10.00;5.00;;;;;-144.24;100.00;98177.69;5053780;27;45365;-70
2024/01/23 10:26:17;;;;;;;;;4.33;3.00;;;;;-144.24;100.00;98147.25;5054070;28;45393;-70
2024/01/23 10:28:43;;;;;;;;;4.00;4.00;;;;;-144.24;100.00;98228.41;5069611;28;45613;-72
2024/01/23 10:31:09;;;;;;;;;4.67;3.00;;;;;-144.24;100.00;98309.59;5068226;28;46779;-69
2024/01/23 10:33:34;;;;;;;;;9.67;3.00;;;;;-144.24;100.00;98269.00;5063524;27;45213;-73
2024/01/23 10:36:01;;;;;;;;;6.00;3.00;;;;;-144.24;100.00;98254.78;5052260;28;58199;-70
2024/01/23 10:38:26;;;;;;;;;10.00;2.00;;;;;-144.24;100.00;98392.78;5063331;28;45228;-71
2024/01/23 10:40:53;;;;;;;;;3.33;1.67;;;;;-144.24;100.00;98518.59;5043231;28;46525;-71
2024/01/23 10:43:19;;;;;;;;;6.00;3.67;;;;;-144.24;100.00;98451.63;5052682;28;45468;-72
2024/01/23 10:45:45;;;;;;;;;12.67;5.00;;;;;-144.24;100.00;98480.03;5049385;28;65554;-69
2024/01/23 10:48:11;;;;;;;;;12.67;3.00;;;;;-144.24;100.00;98331.91;5066102;28;45608;-70
2024/01/23 10:50:36;;;;;;;;;10.00;2.67;;;;;-144.24;100.00;98266.97;5052383;28;46290;-69
2024/01/23 10:53:04;;;;;;;;;6.00;3.33;;;;;-144.24;100.00;97836.78;5074679;28;45346;-70
2024/01/23 10:55:31;;;;;;;;;14.67;9.00;;;;;-144.24;100.00;97639.97;5055938;28;45543;-73